Time;durP1;ratioP1;P1;durP2;ratioP2;P2;SDS_P1;SDS_P2;PMS_P1;PMS_P2;Temp;Humidity;BMP_temperature;BMP_pressure;BME280_temperature;BME280_humidity;BME280_pressure;Samples;Min_cycle;Max_cycle;Signal;HPM_P1;HPM_P2
2021/03/17 00:01:38;;;;;;;11.15;1.83;;;7.50;92.50;;;;;;4820508;29;20107;-78
2021/03/17 00:04:04;;;;;;;10.48;1.58;;;7.60;92.50;;;;;;4804265;29;20046;-78
2021/03/17 00:06:30;;;;;;;9.15;1.60;;;7.50;92.30;;;;;;4820258;29;20049;-78
2021/03/17 00:08:55;;;;;;;12.75;2.20;;;7.50;92.40;;;;;;4821872;29;20403;-78
2021/03/17 00:11:21;;;;;;;9.48;1.88;;;7.50;92.40;;;;;;4820424;29;20351;-77
2021/03/17 00:13:46;;;;;;;11.93;2.00;;;7.40;92.50;;;;;;4820345;29;20538;-77
2021/03/17 00:16:12;;;;;;;9.88;1.70;;;7.40;92.50;;;;;;4820471;29;20042;-77
2021/03/17 00:18:37;;;;;;;13.05;1.85;;;7.40;92.60;;;;;;4820672;29;20042;-76
2021/03/17 00:21:03;;;;;;;13.63;1.85;;;7.40;92.70;;;;;;4821905;29;20608;-78
2021/03/17 00:23:29;;;;;;;12.90;2.00;;;7.40;92.70;;;;;;4820631;29;20374;-79
2021/03/17 00:25:55;;;;;;;7.25;1.80;;;7.60;92.60;;;;;;4804069;29;20454;-77
2021/03/17 00:28:21;;;;;;;8.00;2.17;;;7.50;92.60;;;;;;4819955;29;20050;-78
2021/03/17 00:30:46;;;;;;;10.13;2.22;;;7.50;92.70;;;;;;4819835;29;20507;-77
2021/03/17 00:33:13;;;;;;;9.10;2.45;;;7.50;92.80;;;;;;4819953;29;20034;-77
2021/03/17 00:35:40;;;;;;;5.20;1.70;;;7.50;92.90;;;;;;4821700;29;20027;-79
2021/03/17 00:38:06;;;;;;;10.20;2.13;;;7.50;93.20;;;;;;4820051;29;20058;-77
2021/03/17 00:40:33;;;;;;;8.95;1.38;;;7.30;93.60;;;;;;4820203;29;20047;-77
2021/03/17 00:42:59;;;;;;;8.25;1.38;;;6.90;94.00;;;;;;4820063;29;20465;-78
2021/03/17 00:45:25;;;;;;;3.20;0.73;;;6.50;94.40;;;;;;4804354;29;20034;-78
2021/03/17 00:47:51;;;;;;;7.32;0.95;;;6.60;95.20;;;;;;4821690;29;20030;-77
2021/03/17 00:50:18;;;;;;;5.72;1.15;;;6.60;95.10;;;;;;4820241;29;20050;-77
2021/03/17 00:52:44;;;;;;;7.15;1.63;;;6.70;95.60;;;;;;4804112;29;20051;-77
2021/03/17 00:55:12;;;;;;;6.80;1.35;;;6.40;95.40;;;;;;4823057;29;20042;-77
2021/03/17 00:57:40;;;;;;;7.13;1.38;;;6.50;95.50;;;;;;4806985;29;20121;-77
2021/03/17 01:00:09;;;;;;;2.33;0.98;;;6.50;95.60;;;;;;4808796;29;20037;-76
2021/03/17 01:02:34;;;;;;;6.28;1.08;;;6.40;95.60;;;;;;4822905;29;20045;-78
2021/03/17 01:05:00;;;;;;;3.38;1.05;;;6.50;95.80;;;;;;4823133;29;20058;-77
2021/03/17 01:07:25;;;;;;;2.40;1.00;;;6.60;95.60;;;;;;4807239;29;20075;-76
2021/03/17 01:09:51;;;;;;;6.15;1.27;;;6.40;96.00;;;;;;4823633;29;20038;-77
2021/03/17 01:12:17;;;;;;;4.13;1.52;;;6.50;95.90;;;;;;4823262;29;20038;-79
2021/03/17 01:14:43;;;;;;;3.65;0.90;;;6.50;95.90;;;;;;4824751;29;20030;-77
2021/03/17 01:17:09;;;;;;;3.58;1.00;;;6.60;95.70;;;;;;4806736;29;20355;-77
2021/03/17 01:19:35;;;;;;;3.60;1.35;;;6.50;95.80;;;;;;4822644;29;20111;-77
2021/03/17 01:22:01;;;;;;;5.80;1.40;;;6.40;95.80;;;;;;4822957;29;20053;-77
2021/03/17 01:24:26;;;;;;;1.58;0.93;;;6.50;96.20;;;;;;4823276;29;20050;-78
2021/03/17 01:26:52;;;;;;;4.53;0.90;;;6.50;95.90;;;;;;4824762;29;20046;-78
2021/03/17 01:29:17;;;;;;;1.92;0.88;;;6.70;95.80;;;;;;4822834;29;20038;-77
2021/03/17 01:31:43;;;;;;;2.25;0.57;;;6.40;95.60;;;;;;4822691;29;20111;-77
2021/03/17 01:34:08;;;;;;;5.90;1.10;;;6.30;95.90;;;;;;4822777;29;20057;-77
2021/03/17 01:36:34;;;;;;;2.88;0.90;;;6.30;95.90;;;;;;4806144;29;20050;-77
2021/03/17 01:39:01;;;;;;;3.90;0.98;;;6.40;95.80;;;;;;4808260;29;20022;-77
2021/03/17 01:41:26;;;;;;;5.63;1.25;;;6.50;95.70;;;;;;4822677;29;20121;-78
2021/03/17 01:43:53;;;;;;;4.18;0.95;;;6.60;95.90;;;;;;4822794;29;20143;-77
2021/03/17 01:46:18;;;;;;;3.67;0.82;;;6.60;95.80;;;;;;4822476;29;20035;-76
2021/03/17 01:48:44;;;;;;;5.45;1.13;;;6.50;95.70;;;;;;4822492;29;20045;-79
2021/03/17 01:51:10;;;;;;;4.57;1.23;;;6.60;95.70;;;;;;4823961;29;20031;-78
2021/03/17 01:53:38;;;;;;;5.60;1.40;;;6.50;95.60;;;;;;4822521;29;20042;-79
2021/03/17 01:56:05;;;;;;;10.00;2.15;;;6.60;95.60;;;;;;4822606;29;20038;-77
2021/03/17 01:58:31;;;;;;;5.68;1.52;;;6.60;95.60;;;;;;4822373;29;20062;-77
2021/03/17 02:00:57;;;;;;;5.30;1.52;;;6.70;95.90;;;;;;4806245;29;20090;-78
2021/03/17 02:03:24;;;;;;;7.78;1.70;;;6.50;95.80;;;;;;4806114;29;20031;-78
2021/03/17 02:05:51;;;;;;;13.70;2.15;;;6.60;95.90;;;;;;4823648;29;20050;-76
2021/03/17 02:08:30;;;;;;;9.10;2.10;;;6.60;95.90;;;;;;4822435;29;20117;-77
2021/03/17 02:10:56;;;;;;;9.70;2.30;;;6.50;96.00;;;;;;4821763;29;20053;-77
2021/03/17 02:13:25;;;;;;;10.93;2.22;;;6.50;96.00;;;;;;4822100;29;20126;-77
2021/03/17 02:16:03;;;;;;;7.90;2.10;;;6.60;96.20;;;;;;4806268;29;20039;-79
2021/03/17 02:18:54;;;;;;;7.85;2.67;;;6.50;95.90;;;;;;4822188;29;20063;-78
2021/03/17 02:21:41;;;;;;;9.35;2.30;;;6.60;96.20;;;;;;4821834;29;20123;-78
2021/03/17 02:24:09;;;;;;;8.70;2.92;;;6.30;96.20;;;;;;4823427;29;20105;-78
2021/03/17 02:26:38;;;;;;;6.13;1.92;;;6.40;96.30;;;;;;4821960;29;20106;-77
2021/03/17 02:29:06;;;;;;;4.32;1.60;;;6.50;96.10;;;;;;4821825;29;20058;-78
2021/03/17 02:31:59;;;;;;;6.43;1.95;;;6.50;96.00;;;;;;4821932;29;20377;-78
2021/03/17 02:34:28;;;;;;;7.03;2.00;;;6.60;95.90;;;;;;4805732;29;20050;-77
2021/03/17 02:37:01;;;;;;;8.15;2.35;;;6.60;95.80;;;;;;4821682;29;20466;-78
2021/03/17 02:39:30;;;;;;;10.15;2.03;;;6.70;95.70;;;;;;4805423;29;20026;-78
2021/03/17 02:42:35;;;;;;;11.25;2.25;;;6.70;95.60;;;;;;4807082;29;20061;-78
2021/03/17 02:45:14;;;;;;;11.95;2.28;;;6.60;95.50;;;;;;4795583;29;20126;-76
2021/03/17 02:48:04;;;;;;;8.32;2.08;;;6.60;95.40;;;;;;4806141;29;20607;-77
2021/03/17 02:50:32;;;;;;;8.30;2.22;;;6.60;95.20;;;;;;4821900;29;20396;-77
2021/03/17 02:53:00;;;;;;;10.68;2.10;;;6.70;95.30;;;;;;4805168;29;20038;-77
2021/03/17 02:55:30;;;;;;;10.85;2.00;;;6.70;95.30;;;;;;4805616;29;20114;-78
2021/03/17 02:57:57;;;;;;;10.02;3.28;;;6.60;95.20;;;;;;4805242;29;20058;-78
2021/03/17 03:00:25;;;;;;;7.63;1.60;;;6.70;95.20;;;;;;4821341;29;20030;-78
2021/03/17 03:02:52;;;;;;;11.23;1.98;;;6.70;95.30;;;;;;4823196;29;20194;-78
2021/03/17 03:05:18;;;;;;;8.20;1.88;;;6.70;95.60;;;;;;4821491;29;20058;-77
2021/03/17 03:07:48;;;;;;;6.30;1.58;;;6.60;95.20;;;;;;4821385;29;20130;-78
2021/03/17 03:10:17;;;;;;;13.32;2.28;;;6.30;95.20;;;;;;4821451;29;20058;-79
2021/03/17 03:12:43;;;;;;;8.23;1.67;;;6.40;95.40;;;;;;4821413;29;20038;-78
2021/03/17 03:15:10;;;;;;;7.63;2.00;;;6.30;95.40;;;;;;4822829;29;20026;-78
2021/03/17 03:17:38;;;;;;;11.00;2.53;;;6.20;95.80;;;;;;4820729;29;20084;-77
2021/03/17 03:20:09;;;;;;;7.43;2.65;;;6.30;95.90;;;;;;4821084;29;20521;-77
2021/03/17 03:22:39;;;;;;;9.27;2.85;;;6.40;95.90;;;;;;4820989;29;20098;-78
2021/03/17 03:25:05;;;;;;;9.40;3.15;;;6.50;95.80;;;;;;4804899;29;20106;-78
2021/03/17 03:27:32;;;;;;;15.63;2.95;;;6.50;95.80;;;;;;4821568;29;20369;-77
2021/03/17 03:29:59;;;;;;;5.57;2.05;;;6.30;95.70;;;;;;4806650;29;20031;-77
2021/03/17 03:32:25;;;;;;;10.50;2.63;;;6.40;95.90;;;;;;4804898;29;20045;-76
2021/03/17 03:34:51;;;;;;;9.45;2.30;;;6.40;95.90;;;;;;4820962;29;20047;-77
2021/03/17 03:37:16;;;;;;;5.20;2.00;;;6.50;95.90;;;;;;4820875;29;20038;-78
2021/03/17 03:39:46;;;;;;;14.00;2.40;;;6.50;95.90;;;;;;4804875;29;20538;-77
2021/03/17 03:42:11;;;;;;;9.48;1.90;;;6.50;95.80;;;;;;4804835;29;20046;-78
2021/03/17 03:44:38;;;;;;;9.30;2.20;;;6.50;95.80;;;;;;4822413;29;20473;-78
2021/03/17 03:47:03;;;;;;;9.85;2.17;;;6.40;95.90;;;;;;4821213;29;20051;-78
2021/03/17 03:49:29;;;;;;;9.38;2.25;;;6.30;96.00;;;;;;4804473;29;20103;-77
2021/03/17 03:52:05;;;;;;;14.20;2.92;;;6.50;96.10;;;;;;4820957;29;20034;-77
2021/03/17 03:54:52;;;;;;;12.02;2.33;;;6.20;96.30;;;;;;4804549;29;20519;-78
2021/03/17 03:57:23;;;;;;;9.50;2.25;;;6.30;96.10;;;;;;4820724;29;20022;-77
2021/03/17 03:59:53;;;;;;;7.72;1.88;;;6.30;96.00;;;;;;4822335;29;20583;-78
2021/03/17 04:02:49;;;;;;;14.23;4.00;;;6.20;96.00;;;;;;4820530;29;20074;-77
2021/03/17 04:05:25;;;;;;;6.80;2.35;;;6.20;96.20;;;;;;4813045;29;20074;-77
2021/03/17 04:07:54;;;;;;;8.30;2.22;;;6.40;96.30;;;;;;4804142;29;20537;-78
2021/03/17 04:10:23;;;;;;;10.48;3.35;;;6.30;96.10;;;;;;4820616;29;20435;-78
2021/03/17 04:12:54;;;;;;;14.27;2.90;;;6.30;96.20;;;;;;4820566;29;20110;-77
2021/03/17 04:15:21;;;;;;;6.93;2.15;;;6.40;96.30;;;;;;4820720;29;20453;-76
2021/03/17 04:17:55;;;;;;;22.30;3.50;;;6.50;96.20;;;;;;4822121;29;20656;-77
2021/03/17 04:20:29;;;;;;;5.95;2.20;;;6.40;96.10;;;;;;4820481;29;20060;-77
2021/03/17 04:22:56;;;;;;;10.63;2.78;;;6.50;96.10;;;;;;4804199;29;20404;-77
2021/03/17 04:25:25;;;;;;;14.90;2.58;;;6.40;95.90;;;;;;4820322;29;20068;-77
2021/03/17 04:27:51;;;;;;;;;;;6.30;96.00;;;;;;4820912;29;20042;-78
2021/03/17 04:30:19;;;;;;;10.88;3.00;;;6.30;96.00;;;;;;4823505;29;19944;-78
2021/03/17 04:32:46;;;;;;;15.90;2.83;;;6.30;96.10;;;;;;4825274;29;20041;-78
2021/03/17 04:35:13;;;;;;;10.55;2.97;;;6.30;96.00;;;;;;4823659;29;20354;-78
2021/03/17 04:37:42;;;;;;;9.90;2.40;;;6.20;96.10;;;;;;4823264;29;20427;-77
2021/03/17 04:40:09;;;;;;;8.85;2.80;;;6.20;96.30;;;;;;4823556;29;20034;-77
2021/03/17 04:42:35;;;;;;;13.07;3.65;;;6.30;96.10;;;;;;4823293;29;20042;-77
2021/03/17 04:45:03;;;;;;;14.38;2.90;;;6.40;96.10;;;;;;4824970;29;20034;-78
2021/03/17 04:47:30;;;;;;;17.95;3.05;;;6.40;96.00;;;;;;4823522;29;20046;-79
2021/03/17 04:49:56;;;;;;;8.35;2.78;;;6.40;95.90;;;;;;4823636;29;20047;-78
2021/03/17 04:52:23;;;;;;;13.25;3.00;;;6.40;96.00;;;;;;4807381;29;20434;-78
2021/03/17 04:54:49;;;;;;;12.73;3.20;;;6.30;96.00;;;;;;4823291;29;20042;-78
2021/03/17 04:57:18;;;;;;;17.23;3.50;;;6.50;96.10;;;;;;4823374;29;20022;-78
2021/03/17 04:59:46;;;;;;;13.60;3.83;;;6.40;96.10;;;;;;4808971;29;20041;-78
2021/03/17 05:02:13;;;;;;;16.35;3.17;;;6.50;96.00;;;;;;4822560;29;20516;-77
2021/03/17 05:04:40;;;;;;;17.30;4.93;;;6.40;96.00;;;;;;4807055;29;20211;-78
2021/03/17 05:07:07;;;;;;;15.85;2.97;;;6.40;95.80;;;;;;4823049;29;20123;-78
2021/03/17 05:09:33;;;;;;;7.95;2.97;;;6.50;95.90;;;;;;4822862;29;20038;-78
2021/03/17 05:12:03;;;;;;;10.48;2.70;;;6.50;95.90;;;;;;4824504;29;20075;-77
2021/03/17 05:14:31;;;;;;;8.57;2.40;;;6.40;95.90;;;;;;4823112;29;20042;-77
2021/03/17 05:16:59;;;;;;;15.07;2.83;;;6.30;95.90;;;;;;4822916;29;20087;-77
2021/03/17 05:19:25;;;;;;;;;;;6.30;95.90;;;;;;4823413;29;20038;-77
2021/03/17 05:21:50;;;;;;;13.98;2.15;;;6.20;95.70;;;;;;4822454;29;19921;-78
2021/03/17 05:24:16;;;;;;;9.23;2.00;;;6.30;95.90;;;;;;4822788;29;20528;-77
2021/03/17 05:26:42;;;;;;;10.65;3.95;;;6.30;95.60;;;;;;4808452;29;20651;-77
2021/03/17 05:29:09;;;;;;;9.57;2.88;;;6.20;95.60;;;;;;4822580;29;20039;-77
2021/03/17 05:31:35;;;;;;;7.97;2.72;;;6.30;95.60;;;;;;4822633;29;20037;-77
2021/03/17 05:34:01;;;;;;;7.47;2.40;;;6.20;95.60;;;;;;4806712;29;20042;-78
2021/03/17 05:36:27;;;;;;;11.95;2.47;;;6.30;95.60;;;;;;4822546;29;20030;-77
2021/03/17 05:38:53;;;;;;;9.13;2.20;;;6.40;95.80;;;;;;4823877;29;20025;-77
2021/03/17 05:41:20;;;;;;;13.38;2.50;;;6.30;95.50;;;;;;4822275;29;20126;-77
2021/03/17 05:43:47;;;;;;;3.30;1.92;;;6.30;95.40;;;;;;4822298;29;20525;-77
2021/03/17 05:46:14;;;;;;;9.02;2.30;;;6.20;95.50;;;;;;4806037;29;20042;-76
2021/03/17 05:48:41;;;;;;;11.38;2.08;;;6.30;95.50;;;;;;4822464;29;20049;-77
2021/03/17 05:51:08;;;;;;;14.20;2.67;;;6.30;95.50;;;;;;4807787;29;20375;-78
2021/03/17 05:53:34;;;;;;;5.40;2.47;;;6.30;95.60;;;;;;4822421;29;20588;-78
2021/03/17 05:56:00;;;;;;;11.55;2.25;;;6.30;95.70;;;;;;4822081;29;20048;-78
2021/03/17 05:58:26;;;;;;;10.98;2.90;;;6.40;95.60;;;;;;4806208;29;20099;-79
2021/03/17 06:00:51;;;;;;;10.95;2.40;;;6.30;95.70;;;;;;4821174;29;20034;-80
2021/03/17 06:03:18;;;;;;;5.90;2.70;;;6.40;95.80;;;;;;4821998;29;20027;-78
2021/03/17 06:05:45;;;;;;;9.00;2.20;;;6.40;95.60;;;;;;4823646;29;20407;-77
2021/03/17 06:08:19;;;;;;;10.43;2.42;;;6.30;95.40;;;;;;4822263;29;20131;-77
2021/03/17 06:10:46;;;;;;;9.73;1.88;;;6.20;95.40;;;;;;4821777;29;20374;-78
2021/03/17 06:13:14;;;;;;;7.20;1.92;;;6.30;95.50;;;;;;4821410;29;20049;-77
2021/03/17 06:15:42;;;;;;;14.88;3.47;;;6.40;95.50;;;;;;4821855;29;20099;-79
2021/03/17 06:18:08;;;;;;;8.80;2.50;;;6.40;95.60;;;;;;4823391;29;20037;-79
2021/03/17 06:20:35;;;;;;;8.55;3.00;;;6.20;95.50;;;;;;4821835;29;20408;-78
2021/03/17 06:23:02;;;;;;;6.97;2.17;;;6.20;95.60;;;;;;4821660;29;20042;-78
2021/03/17 06:25:28;;;;;;;8.45;2.42;;;6.20;95.50;;;;;;4805553;29;20111;-79
2021/03/17 06:27:54;;;;;;;11.60;2.70;;;6.30;95.60;;;;;;4821390;29;20046;-78
2021/03/17 06:30:20;;;;;;;11.98;2.78;;;6.30;95.40;;;;;;4805379;29;20086;-78
2021/03/17 06:32:45;;;;;;;15.18;2.33;;;6.30;95.30;;;;;;4807036;29;20038;-79
2021/03/17 06:35:24;;;;;;;20.08;2.50;;;6.30;95.20;;;;;;4821627;29;20042;-79
2021/03/17 06:37:50;;;;;;;10.35;1.98;;;6.40;95.40;;;;;;4821227;29;20121;-79
2021/03/17 06:40:36;;;;;;;19.95;3.78;;;6.40;95.50;;;;;;4805015;29;20034;-79
2021/03/17 06:43:10;;;;;;;6.53;2.60;;;6.50;95.30;;;;;;4821388;29;20129;-78
2021/03/17 06:45:48;;;;;;;17.45;2.72;;;6.50;95.10;;;;;;4805059;29;20038;-78
2021/03/17 06:48:28;;;;;;;21.50;4.00;;;6.50;95.00;;;;;;4821536;29;20038;-74
2021/03/17 06:51:13;;;;;;;7.75;1.67;;;6.40;94.90;;;;;;4822152;29;20432;-81
2021/03/17 06:53:42;;;;;;;10.43;2.85;;;6.50;95.20;;;;;;4821654;29;20133;-79
2021/03/17 06:56:19;;;;;;;15.30;2.45;;;6.50;95.20;;;;;;4821767;29;20559;-79
2021/03/17 06:58:53;;;;;;;11.07;2.37;;;6.50;95.20;;;;;;4821375;29;20042;-80
2021/03/17 07:01:40;;;;;;;11.70;2.40;;;6.50;95.30;;;;;;4820903;29;20065;-80
2021/03/17 07:04:11;;;;;;;7.15;2.35;;;6.50;95.20;;;;;;4821288;29;20043;-80
2021/03/17 07:06:41;;;;;;;8.55;2.38;;;6.50;95.00;;;;;;4821333;29;20197;-79
2021/03/17 07:09:19;;;;;;;6.63;2.22;;;6.30;94.80;;;;;;4812614;29;20029;-80
2021/03/17 07:11:51;;;;;;;7.50;2.50;;;6.20;95.00;;;;;;4803102;29;20095;-79
2021/03/17 07:14:24;;;;;;;11.98;3.25;;;6.40;94.90;;;;;;4802771;29;20248;-80
2021/03/17 07:16:50;;;;;;;15.93;2.63;;;6.50;94.80;;;;;;4802746;29;20126;-80
2021/03/17 07:19:37;;;;;;;8.05;2.60;;;6.60;95.10;;;;;;4786899;29;20118;-81
2021/03/17 07:22:12;;;;;;;9.95;2.95;;;6.60;94.70;;;;;;4802805;29;20125;-81
2021/03/17 07:24:40;;;;;;;15.60;3.40;;;6.70;94.80;;;;;;4802753;29;20489;-81
2021/03/17 07:27:16;;;;;;;9.40;2.13;;;6.70;94.60;;;;;;4803946;29;20444;-81
2021/03/17 07:29:43;;;;;;;15.77;2.95;;;6.70;94.70;;;;;;4802769;29;20054;-80
2021/03/17 07:32:11;;;;;;;10.50;3.67;;;6.80;94.90;;;;;;4802509;29;20050;-79
2021/03/17 07:34:36;;;;;;;14.30;3.03;;;6.90;94.70;;;;;;4802514;29;20038;-81
2021/03/17 07:37:05;;;;;;;11.65;2.70;;;6.90;94.50;;;;;;4801816;29;20053;-78
2021/03/17 07:39:37;;;;;;;23.42;3.55;;;6.90;94.50;;;;;;4802812;29;20055;-80
2021/03/17 07:42:13;;;;;;;5.15;2.08;;;7.00;94.40;;;;;;4804003;29;20396;-80
2021/03/17 07:44:42;;;;;;;11.63;2.50;;;7.00;94.30;;;;;;4802769;29;20046;-79
2021/03/17 07:47:10;;;;;;;;;;;7.00;94.20;;;;;;4803045;29;20072;-81
2021/03/17 07:49:42;;;;;;;10.48;2.63;;;7.00;93.90;;;;;;4802308;29;19974;-79
2021/03/17 07:52:18;;;;;;;6.25;2.35;;;7.00;93.90;;;;;;4802710;29;20035;-80
2021/03/17 07:54:52;;;;;;;16.02;2.72;;;7.00;94.00;;;;;;4802464;29;20050;-79
2021/03/17 07:57:20;;;;;;;9.50;3.75;;;7.10;93.90;;;;;;4802235;29;20027;-81
2021/03/17 07:59:47;;;;;;;12.23;4.30;;;7.10;93.60;;;;;;4803852;29;20015;-80
2021/03/17 08:02:13;;;;;;;20.42;3.90;;;7.10;93.50;;;;;;4786980;29;20047;-81
2021/03/17 08:04:39;;;;;;;11.68;3.08;;;7.20;93.60;;;;;;4805062;29;20066;-79
2021/03/17 08:07:05;;;;;;;11.95;2.80;;;7.20;93.40;;;;;;4805739;29;20070;-79
2021/03/17 08:09:32;;;;;;;8.00;2.30;;;7.10;93.20;;;;;;4806306;29;20046;-78
2021/03/17 08:12:07;;;;;;;9.77;1.85;;;7.10;92.80;;;;;;4791730;29;20112;-78
2021/03/17 08:14:34;;;;;;;9.23;2.13;;;7.10;92.50;;;;;;4805675;29;20047;-76
2021/03/17 08:16:59;;;;;;;10.73;2.85;;;7.00;92.40;;;;;;4805718;29;20050;-77
2021/03/17 08:19:29;;;;;;;12.38;2.42;;;7.00;92.30;;;;;;4805950;29;20038;-78
2021/03/17 08:22:02;;;;;;;8.93;2.33;;;7.20;92.70;;;;;;4805801;29;20058;-76
2021/03/17 08:24:35;;;;;;;9.93;1.80;;;7.60;92.60;;;;;;4805954;29;20090;-77
2021/03/17 08:27:22;;;;;;;9.13;2.05;;;7.70;91.80;;;;;;4807633;29;20086;-78
2021/03/17 08:30:02;;;;;;;11.43;2.67;;;7.80;90.90;;;;;;4805022;29;20130;-78
2021/03/17 08:32:58;;;;;;;11.48;2.17;;;8.00;91.10;;;;;;4805585;29;20467;-78
2021/03/17 08:35:44;;;;;;;12.75;1.63;;;8.10;90.30;;;;;;4805695;29;20122;-78
2021/03/17 08:38:13;;;;;;;11.77;1.88;;;8.20;89.30;;;;;;4805409;29;20039;-78
2021/03/17 08:40:38;;;;;;;9.73;2.33;;;8.40;89.00;;;;;;4804967;29;20046;-78
2021/03/17 08:43:29;;;;;;;12.57;2.58;;;8.40;87.70;;;;;;4805486;29;20055;-78
2021/03/17 08:46:23;;;;;;;15.20;2.25;;;8.40;87.70;;;;;;4789006;29;20059;-76
2021/03/17 08:49:03;;;;;;;5.68;1.02;;;8.30;86.10;;;;;;4805732;29;20100;-77
2021/03/17 08:51:47;;;;;;;5.72;1.25;;;8.00;79.90;;;;;;4804904;29;20037;-77
2021/03/17 08:54:31;;;;;;;8.25;1.58;;;8.10;79.90;;;;;;4805304;29;20033;-76
2021/03/17 08:57:05;;;;;;;10.50;1.00;;;8.10;79.90;;;;;;4807064;29;20023;-78
2021/03/17 08:59:54;;;;;;;10.23;1.00;;;8.20;78.30;;;;;;4805454;29;20035;-76
2021/03/17 09:02:26;;;;;;;3.47;0.90;;;8.30;76.80;;;;;;4789408;29;20046;-78
2021/03/17 09:05:03;;;;;;;8.73;0.93;;;8.30;75.50;;;;;;4805380;29;20107;-79
2021/03/17 09:07:32;;;;;;;4.93;1.23;;;8.40;77.10;;;;;;4804872;29;20442;-78
2021/03/17 09:10:04;;;;;;;6.55;0.98;;;8.60;76.80;;;;;;4805062;29;20466;-77
2021/03/17 09:12:33;;;;;;;19.23;1.92;;;8.70;75.20;;;;;;4804823;29;20035;-79
2021/03/17 09:15:11;;;;;;;9.10;1.17;;;8.80;75.00;;;;;;4805531;29;20035;-78
2021/03/17 09:17:44;;;;;;;10.75;1.48;;;8.80;75.80;;;;;;4805494;29;20038;-78
2021/03/17 09:20:15;;;;;;;7.00;1.40;;;8.80;76.10;;;;;;4804915;29;20050;-77
2021/03/17 09:22:47;;;;;;;6.15;1.08;;;8.60;75.90;;;;;;4788512;29;20053;-78
2021/03/17 09:25:22;;;;;;;10.75;1.38;;;9.00;77.90;;;;;;4788561;29;20130;-78
2021/03/17 09:27:49;;;;;;;9.05;2.35;;;9.00;77.20;;;;;;4788679;29;20034;-77
2021/03/17 09:30:16;;;;;;;13.70;1.67;;;9.10;77.10;;;;;;4804664;29;20027;-79
2021/03/17 09:32:43;;;;;;;5.97;1.05;;;9.20;78.10;;;;;;4806419;29;20050;-78
2021/03/17 09:35:09;;;;;;;6.80;1.17;;;9.20;78.10;;;;;;4804653;29;20241;-78
2021/03/17 09:37:35;;;;;;;8.02;1.27;;;9.20;79.00;;;;;;4804985;29;20095;-78
2021/03/17 09:40:01;;;;;;;7.60;1.30;;;9.30;78.40;;;;;;4804747;29;20030;-78
2021/03/17 09:42:27;;;;;;;9.98;1.17;;;9.20;77.50;;;;;;4804288;29;20466;-78
2021/03/17 09:44:58;;;;;;;19.83;2.13;;;9.00;76.60;;;;;;4805946;29;20031;-78
2021/03/17 09:47:29;;;;;;;6.28;1.38;;;8.90;76.00;;;;;;4803639;29;20059;-78
2021/03/17 09:49:55;;;;;;;10.20;1.83;;;8.70;76.60;;;;;;4804113;29;20071;-79
2021/03/17 09:52:21;;;;;;;4.22;1.20;;;9.40;78.20;;;;;;4804185;29;20474;-77
2021/03/17 09:54:47;;;;;;;8.32;1.08;;;10.30;75.70;;;;;;4804402;29;20031;-77
2021/03/17 09:57:13;;;;;;;6.97;1.08;;;10.30;72.40;;;;;;4804120;29;20176;-77
2021/03/17 09:59:46;;;;;;;6.15;1.52;;;10.90;73.20;;;;;;4805721;29;20023;-77
2021/03/17 10:02:21;;;;;;;11.20;1.33;;;11.70;71.00;;;;;;4802605;29;20050;-76
2021/03/17 10:04:49;;;;;;;10.20;1.60;;;12.90;69.80;;;;;;4788229;29;20075;-76
2021/03/17 10:07:21;;;;;;;9.93;1.60;;;13.40;65.10;;;;;;4804331;29;20090;-76
2021/03/17 10:09:48;;;;;;;3.85;0.90;;;14.60;62.40;;;;;;4803783;29;20031;-77
2021/03/17 10:12:16;;;;;;;9.30;1.20;;;14.80;56.30;;;;;;4803808;29;20027;-76
2021/03/17 10:14:52;;;;;;;4.90;1.40;;;16.20;56.30;;;;;;4805360;29;20031;-75
2021/03/17 10:17:20;;;;;;;4.60;1.27;;;17.10;52.50;;;;;;4803686;29;20038;-80
2021/03/17 10:19:51;;;;;;;6.70;1.42;;;17.40;48.70;;;;;;4804292;29;20038;-80
2021/03/17 10:22:17;;;;;;;4.43;1.13;;;18.30;47.20;;;;;;4787651;29;20046;-77
2021/03/17 10:24:47;;;;;;;3.38;1.23;;;18.90;45.40;;;;;;4787543;29;20035;-78
2021/03/17 10:27:16;;;;;;;6.85;1.75;;;18.40;44.30;;;;;;4786929;29;20027;-80
2021/03/17 10:29:43;;;;;;;6.88;1.52;;;18.30;42.80;;;;;;4805026;29;20454;-78
2021/03/17 10:32:14;;;;;;;4.72;0.90;;;17.50;42.60;;;;;;4787129;29;20355;-77
2021/03/17 10:34:43;;;;;;;6.40;1.00;;;18.80;42.70;;;;;;4803505;29;20051;-79
2021/03/17 10:37:14;;;;;;;6.32;1.10;;;19.10;38.60;;;;;;4803442;29;20035;-80
2021/03/17 10:39:40;;;;;;;4.32;1.08;;;18.70;40.40;;;;;;4803527;29;20425;-80
2021/03/17 10:42:17;;;;;;;6.85;1.50;;;19.70;39.70;;;;;;4804948;29;20095;-81
2021/03/17 10:44:43;;;;;;;3.90;0.88;;;20.30;39.30;;;;;;4803630;29;20038;-84
2021/03/17 10:47:10;;;;;;;4.05;1.20;;;20.40;37.90;;;;;;4803545;29;20035;-81
2021/03/17 10:49:44;;;;;;;11.73;1.75;;;20.70;37.10;;;;;;4803193;29;20046;-76
2021/03/17 10:52:10;;;;;;;4.70;1.23;;;20.60;36.90;;;;;;4803478;29;20034;-78
2021/03/17 10:54:41;;;;;;;6.85;1.40;;;20.30;36.60;;;;;;4803558;29;20072;-78
2021/03/17 10:57:08;;;;;;;8.38;1.35;;;19.90;36.80;;;;;;4805056;29;20038;-80
2021/03/17 10:59:34;;;;;;;6.88;1.48;;;19.50;37.30;;;;;;4802826;29;20031;-82
2021/03/17 11:02:26;;;;;;;6.88;1.15;;;19.00;37.60;;;;;;4803400;29;20053;-82
2021/03/17 11:05:22;;;;;;;5.05;1.60;;;18.30;38.10;;;;;;4802879;29;20714;-81
2021/03/17 11:08:00;;;;;;;7.90;1.30;;;18.30;38.40;;;;;;4802826;29;20066;-81
2021/03/17 11:10:38;;;;;;;9.05;1.27;;;17.60;38.40;;;;;;4803222;29;20506;-79
2021/03/17 11:13:10;;;;;;;7.57;1.20;;;17.10;39.60;;;;;;4786988;29;20039;-81
2021/03/17 11:15:42;;;;;;;6.85;1.00;;;16.40;40.30;;;;;;4802937;29;20442;-83
2021/03/17 11:18:08;;;;;;;5.72;1.30;;;15.60;40.80;;;;;;4804617;29;20050;-81
2021/03/17 11:20:40;;;;;;;9.40;1.23;;;15.20;41.40;;;;;;4802950;29;20042;-83
2021/03/17 11:23:17;;;;;;;3.90;1.20;;;14.50;41.90;;;;;;4787484;29;20047;-82
2021/03/17 11:25:44;;;;;;;7.22;1.10;;;14.50;43.00;;;;;;4787167;29;20129;-82
2021/03/17 11:28:14;;;;;;;7.10;1.45;;;14.30;43.20;;;;;;4802969;29;20043;-83
2021/03/17 11:30:46;;;;;;;4.57;1.27;;;14.60;44.00;;;;;;4802737;29;20041;-82
2021/03/17 11:33:13;;;;;;;7.10;1.48;;;14.80;43.40;;;;;;4802833;29;20050;-77
2021/03/17 11:35:40;;;;;;;10.05;1.52;;;14.70;43.90;;;;;;4804461;29;20559;-82
2021/03/17 11:38:06;;;;;;;11.77;1.42;;;15.60;43.20;;;;;;4797860;29;20386;-83
2021/03/17 11:40:31;;;;;;;4.95;1.50;;;15.00;41.30;;;;;;4802207;29;20066;-83
2021/03/17 11:43:12;;;;;;;3.75;1.10;;;15.00;42.40;;;;;;4802251;29;20047;-83
2021/03/17 11:45:41;;;;;;;4.95;0.98;;;15.10;42.10;;;;;;4786644;29;20474;-81
2021/03/17 11:48:07;;;;;;;5.85;1.23;;;15.60;42.80;;;;;;4803976;29;20034;-76
2021/03/17 11:50:36;;;;;;;8.63;1.20;;;15.70;42.80;;;;;;4802832;29;20050;-81
2021/03/17 11:53:03;;;;;;;8.50;1.05;;;15.90;42.90;;;;;;4802494;29;20082;-83
2021/03/17 11:55:29;;;;;;;8.13;1.52;;;15.40;42.60;;;;;;4802599;29;20112;-83
2021/03/17 11:57:55;;;;;;;7.07;1.17;;;15.00;42.90;;;;;;4802404;29;20062;-81
2021/03/17 12:00:22;;;;;;;8.20;1.27;;;14.50;43.30;;;;;;4803035;29;20065;-84
2021/03/17 12:02:47;;;;;;;7.93;1.33;;;14.30;44.70;;;;;;4804138;29;20034;-84
2021/03/17 12:05:15;;;;;;;7.30;1.67;;;13.80;44.20;;;;;;4802010;29;20063;-83
2021/03/17 12:07:41;;;;;;;4.13;1.40;;;13.50;45.10;;;;;;4787224;29;20092;-81
2021/03/17 12:10:07;;;;;;;6.63;1.15;;;13.30;45.20;;;;;;4786728;29;20051;-82
2021/03/17 12:12:34;;;;;;;5.88;1.20;;;13.10;44.90;;;;;;4802591;29;20071;-83
2021/03/17 12:15:02;;;;;;;7.07;1.33;;;13.40;45.20;;;;;;4788452;29;20035;-84
2021/03/17 12:17:29;;;;;;;;;;;13.50;44.90;;;;;;4803315;29;20043;-82
2021/03/17 12:19:54;;;;;;;3.45;1.00;;;13.40;45.10;;;;;;4802901;29;19973;-83
2021/03/17 12:22:20;;;;;;;7.18;2.35;;;13.20;45.20;;;;;;4802824;29;20624;-82
2021/03/17 12:24:46;;;;;;;4.13;1.05;;;13.10;45.50;;;;;;4786817;29;20138;-85
2021/03/17 12:27:12;;;;;;;4.28;0.90;;;12.90;45.70;;;;;;4801774;29;20117;-81
2021/03/17 12:29:37;;;;;;;7.28;1.27;;;12.80;45.80;;;;;;4804230;29;20106;-83
2021/03/17 12:32:04;;;;;;;9.95;1.10;;;12.80;46.20;;;;;;4802701;29;20495;-84
2021/03/17 12:34:29;;;;;;;5.63;1.42;;;12.90;46.20;;;;;;4786688;29;20069;-83
2021/03/17 12:36:56;;;;;;;4.68;1.20;;;12.80;46.20;;;;;;4802434;29;20358;-81
2021/03/17 12:39:22;;;;;;;5.63;1.40;;;12.90;46.30;;;;;;4801622;29;20027;-83
2021/03/17 12:41:48;;;;;;;5.28;1.48;;;12.90;46.30;;;;;;4805278;29;20031;-83
2021/03/17 12:44:14;;;;;;;4.82;1.30;;;12.70;46.10;;;;;;4802672;29;20035;-86
2021/03/17 12:46:40;;;;;;;6.63;1.10;;;12.80;46.40;;;;;;4786804;29;20125;-84
2021/03/17 12:49:06;;;;;;;7.40;1.25;;;12.70;46.10;;;;;;4802745;29;20050;-86
2021/03/17 12:51:31;;;;;;;5.25;1.20;;;12.50;45.80;;;;;;4805039;29;20036;-86
2021/03/17 12:53:57;;;;;;;7.57;1.63;;;12.40;46.10;;;;;;4806582;29;20027;-83
2021/03/17 12:56:23;;;;;;;4.40;1.13;;;12.60;46.70;;;;;;4805474;29;20039;-85
2021/03/17 12:58:49;;;;;;;5.75;1.40;;;12.80;46.40;;;;;;4804991;29;20046;-81
2021/03/17 13:01:14;;;;;;;5.72;1.25;;;12.90;46.50;;;;;;4804807;29;20045;-84
2021/03/17 13:03:40;;;;;;;4.80;1.23;;;12.60;46.30;;;;;;4804175;29;20034;-83
2021/03/17 13:06:06;;;;;;;2.80;1.10;;;12.70;46.60;;;;;;4806199;29;20100;-84